In Rescue
 
Open Full Screen Window  High Contrast Mode
Wind Gusting 00 knots
04
March 19, 2019 5:55 PM CDT
Weather Information
Wind Direction
  290 °
Wind Speed
  04 kt (5 mph)
Wind Gust
  00 kt (0 mph)
Altimeter
30.17 in
Visibility
10 SM
Temperature
05° C
41° F
Dewpoint
00° C
32° F
Humidity
70%
1hr Rain Fall
00.00 in.
24hr Rain Fall
00.00 in.
Sky Condition
Clear
VFR

METAR KDVP 192255Z AUTO 29004KT 10SM CLR 05/00 A3017 RMK AO2 T00480002

FAA Disclaimer: The data displayed is for advisory purposes only and is not to be used for flight planning or operations.